sensor_id;sensor_type;location;lat;lon;timestamp;P1;durP1;ratioP1;P2;durP2;ratioP2
4547;SDS011;2286;51.570;7.090;2022-12-18T00:00:44;78.05;;;43.63;;
4547;SDS011;2286;51.570;7.090;2022-12-18T00:03:13;85.32;;;45.53;;
4547;SDS011;2286;51.570;7.090;2022-12-18T00:05:45;84.35;;;45.70;;
4547;SDS011;2286;51.570;7.090;2022-12-18T00:08:13;90.53;;;51.88;;
4547;SDS011;2286;51.570;7.090;2022-12-18T00:10:40;98.18;;;53.03;;
4547;SDS011;2286;51.570;7.090;2022-12-18T00:13:07;85.38;;;50.25;;
4547;SDS011;2286;51.570;7.090;2022-12-18T00:15:34;92.10;;;54.95;;
4547;SDS011;2286;51.570;7.090;2022-12-18T00:18:01;88.88;;;51.63;;
4547;SDS011;2286;51.570;7.090;2022-12-18T00:20:30;69.80;;;42.22;;
4547;SDS011;2286;51.570;7.090;2022-12-18T00:22:57;76.45;;;43.53;;
4547;SDS011;2286;51.570;7.090;2022-12-18T00:25:24;76.20;;;41.90;;
4547;SDS011;2286;51.570;7.090;2022-12-18T00:27:50;74.97;;;41.42;;
4547;SDS011;2286;51.570;7.090;2022-12-18T00:30:17;83.13;;;43.17;;
4547;SDS011;2286;51.570;7.090;2022-12-18T00:32:44;78.25;;;44.75;;
4547;SDS011;2286;51.570;7.090;2022-12-18T00:35:11;67.47;;;40.38;;
4547;SDS011;2286;51.570;7.090;2022-12-18T00:37:39;76.55;;;41.35;;
4547;SDS011;2286;51.570;7.090;2022-12-18T00:40:07;81.32;;;40.63;;
4547;SDS011;2286;51.570;7.090;2022-12-18T00:42:35;67.78;;;41.08;;
4547;SDS011;2286;51.570;7.090;2022-12-18T00:45:15;76.63;;;40.92;;
4547;SDS011;2286;51.570;7.090;2022-12-18T00:47:42;84.15;;;44.30;;
4547;SDS011;2286;51.570;7.090;2022-12-18T00:50:09;71.88;;;40.47;;
4547;SDS011;2286;51.570;7.090;2022-12-18T00:52:36;68.70;;;39.92;;
4547;SDS011;2286;51.570;7.090;2022-12-18T00:55:07;69.55;;;42.50;;
4547;SDS011;2286;51.570;7.090;2022-12-18T00:57:34;73.13;;;42.47;;
4547;SDS011;2286;51.570;7.090;2022-12-18T01:00:01;78.15;;;42.75;;
4547;SDS011;2286;51.570;7.090;2022-12-18T01:02:28;73.22;;;42.75;;
4547;SDS011;2286;51.570;7.090;2022-12-18T01:04:55;67.35;;;40.35;;
4547;SDS011;2286;51.570;7.090;2022-12-18T01:07:21;79.63;;;41.35;;
4547;SDS011;2286;51.570;7.090;2022-12-18T01:09:49;70.00;;;39.40;;
4547;SDS011;2286;51.570;7.090;2022-12-18T01:12:17;75.60;;;41.75;;
4547;SDS011;2286;51.570;7.090;2022-12-18T01:14:43;66.38;;;38.15;;
4547;SDS011;2286;51.570;7.090;2022-12-18T01:17:11;62.08;;;39.03;;
4547;SDS011;2286;51.570;7.090;2022-12-18T01:19:37;64.03;;;40.17;;
4547;SDS011;2286;51.570;7.090;2022-12-18T01:22:04;68.13;;;39.03;;
4547;SDS011;2286;51.570;7.090;2022-12-18T01:24:31;69.78;;;38.67;;
4547;SDS011;2286;51.570;7.090;2022-12-18T01:26:58;65.95;;;39.45;;
4547;SDS011;2286;51.570;7.090;2022-12-18T01:29:26;77.20;;;42.83;;
4547;SDS011;2286;51.570;7.090;2022-12-18T01:31:54;69.93;;;40.13;;
4547;SDS011;2286;51.570;7.090;2022-12-18T01:34:21;69.72;;;40.15;;
4547;SDS011;2286;51.570;7.090;2022-12-18T01:36:48;64.40;;;37.85;;
4547;SDS011;2286;51.570;7.090;2022-12-18T01:39:17;71.22;;;39.50;;
4547;SDS011;2286;51.570;7.090;2022-12-18T01:41:44;62.72;;;39.22;;
4547;SDS011;2286;51.570;7.090;2022-12-18T01:47:26;68.53;;;39.28;;
4547;SDS011;2286;51.570;7.090;2022-12-18T01:49:57;62.45;;;38.05;;
4547;SDS011;2286;51.570;7.090;2022-12-18T01:52:28;63.13;;;37.28;;
4547;SDS011;2286;51.570;7.090;2022-12-18T01:54:56;65.22;;;38.70;;
4547;SDS011;2286;51.570;7.090;2022-12-18T01:57:25;60.97;;;36.45;;
4547;SDS011;2286;51.570;7.090;2022-12-18T01:59:55;69.05;;;37.40;;
4547;SDS011;2286;51.570;7.090;2022-12-18T02:02:26;70.45;;;37.67;;
4547;SDS011;2286;51.570;7.090;2022-12-18T02:04:53;67.13;;;37.97;;
4547;SDS011;2286;51.570;7.090;2022-12-18T02:07:22;61.63;;;36.47;;
4547;SDS011;2286;51.570;7.090;2022-12-18T02:09:57;61.03;;;35.30;;
4547;SDS011;2286;51.570;7.090;2022-12-18T02:12:27;58.70;;;35.58;;
4547;SDS011;2286;51.570;7.090;2022-12-18T02:15:05;62.53;;;36.08;;
4547;SDS011;2286;51.570;7.090;2022-12-18T02:17:38;57.72;;;35.17;;
4547;SDS011;2286;51.570;7.090;2022-12-18T02:20:12;56.67;;;35.60;;
4547;SDS011;2286;51.570;7.090;2022-12-18T02:22:44;64.43;;;36.13;;
4547;SDS011;2286;51.570;7.090;2022-12-18T02:25:25;60.97;;;37.75;;
4547;SDS011;2286;51.570;7.090;2022-12-18T02:28:13;58.45;;;36.92;;
4547;SDS011;2286;51.570;7.090;2022-12-18T02:30:42;64.97;;;35.97;;
4547;SDS011;2286;51.570;7.090;2022-12-18T02:33:12;57.15;;;36.65;;
4547;SDS011;2286;51.570;7.090;2022-12-18T02:35:40;54.15;;;34.30;;
4547;SDS011;2286;51.570;7.090;2022-12-18T02:38:09;63.30;;;38.03;;
4547;SDS011;2286;51.570;7.090;2022-12-18T02:40:38;63.13;;;36.90;;
4547;SDS011;2286;51.570;7.090;2022-12-18T02:43:09;51.33;;;32.25;;
4547;SDS011;2286;51.570;7.090;2022-12-18T02:45:45;55.33;;;34.80;;
4547;SDS011;2286;51.570;7.090;2022-12-18T02:48:13;60.67;;;36.67;;
4547;SDS011;2286;51.570;7.090;2022-12-18T02:50:41;61.55;;;35.47;;
4547;SDS011;2286;51.570;7.090;2022-12-18T02:53:16;69.25;;;39.53;;
4547;SDS011;2286;51.570;7.090;2022-12-18T02:55:56;61.00;;;34.50;;
4547;SDS011;2286;51.570;7.090;2022-12-18T02:58:30;57.13;;;35.00;;
4547;SDS011;2286;51.570;7.090;2022-12-18T03:01:06;56.38;;;34.03;;
4547;SDS011;2286;51.570;7.090;2022-12-18T03:03:39;53.90;;;34.28;;
4547;SDS011;2286;51.570;7.090;2022-12-18T03:06:08;50.60;;;31.90;;
4547;SDS011;2286;51.570;7.090;2022-12-18T03:08:42;51.25;;;33.03;;
4547;SDS011;2286;51.570;7.090;2022-12-18T03:11:12;52.95;;;31.77;;
4547;SDS011;2286;51.570;7.090;2022-12-18T03:13:40;43.92;;;29.73;;
4547;SDS011;2286;51.570;7.090;2022-12-18T03:16:14;56.55;;;32.38;;
4547;SDS011;2286;51.570;7.090;2022-12-18T03:18:45;48.45;;;33.53;;
4547;SDS011;2286;51.570;7.090;2022-12-18T03:21:15;50.33;;;32.05;;
4547;SDS011;2286;51.570;7.090;2022-12-18T03:23:47;55.45;;;32.83;;
4547;SDS011;2286;51.570;7.090;2022-12-18T03:26:17;51.28;;;31.65;;
4547;SDS011;2286;51.570;7.090;2022-12-18T03:28:49;47.53;;;29.27;;
4547;SDS011;2286;51.570;7.090;2022-12-18T03:31:29;49.85;;;33.05;;
4547;SDS011;2286;51.570;7.090;2022-12-18T03:33:59;53.05;;;31.60;;
4547;SDS011;2286;51.570;7.090;2022-12-18T03:36:30;52.95;;;31.58;;
4547;SDS011;2286;51.570;7.090;2022-12-18T03:38:57;49.20;;;31.10;;
4547;SDS011;2286;51.570;7.090;2022-12-18T03:41:25;51.47;;;30.38;;
4547;SDS011;2286;51.570;7.090;2022-12-18T03:43:59;46.55;;;29.13;;
4547;SDS011;2286;51.570;7.090;2022-12-18T03:46:33;45.42;;;29.80;;
4547;SDS011;2286;51.570;7.090;2022-12-18T03:49:08;48.42;;;30.55;;
4547;SDS011;2286;51.570;7.090;2022-12-18T03:51:39;50.38;;;30.48;;
4547;SDS011;2286;51.570;7.090;2022-12-18T03:54:10;45.90;;;28.98;;
4547;SDS011;2286;51.570;7.090;2022-12-18T03:56:38;47.70;;;30.08;;
4547;SDS011;2286;51.570;7.090;2022-12-18T03:59:07;53.10;;;30.58;;
4547;SDS011;2286;51.570;7.090;2022-12-18T04:01:38;42.72;;;26.73;;
4547;SDS011;2286;51.570;7.090;2022-12-18T04:04:08;45.05;;;27.85;;
4547;SDS011;2286;51.570;7.090;2022-12-18T04:06:38;47.50;;;29.15;;
4547;SDS011;2286;51.570;7.090;2022-12-18T04:09:07;41.13;;;27.17;;
4547;SDS011;2286;51.570;7.090;2022-12-18T04:11:34;50.25;;;30.33;;
4547;SDS011;2286;51.570;7.090;2022-12-18T04:14:01;46.03;;;28.55;;
4547;SDS011;2286;51.570;7.090;2022-12-18T04:16:28;42.40;;;28.38;;
4547;SDS011;2286;51.570;7.090;2022-12-18T04:18:56;46.80;;;28.10;;
4547;SDS011;2286;51.570;7.090;2022-12-18T04:21:24;45.10;;;28.58;;
4547;SDS011;2286;51.570;7.090;2022-12-18T04:23:51;47.90;;;28.55;;
4547;SDS011;2286;51.570;7.090;2022-12-18T04:26:18;52.00;;;30.50;;
4547;SDS011;2286;51.570;7.090;2022-12-18T04:28:45;44.95;;;29.13;;
4547;SDS011;2286;51.570;7.090;2022-12-18T04:31:12;45.83;;;29.27;;
4547;SDS011;2286;51.570;7.090;2022-12-18T04:33:39;48.05;;;31.38;;
4547;SDS011;2286;51.570;7.090;2022-12-18T04:36:08;43.58;;;27.85;;
4547;SDS011;2286;51.570;7.090;2022-12-18T04:38:37;42.90;;;28.60;;
4547;SDS011;2286;51.570;7.090;2022-12-18T04:41:04;39.97;;;28.90;;
4547;SDS011;2286;51.570;7.090;2022-12-18T04:43:31;51.65;;;30.73;;
4547;SDS011;2286;51.570;7.090;2022-12-18T04:46:02;49.97;;;29.50;;
4547;SDS011;2286;51.570;7.090;2022-12-18T04:48:30;45.78;;;29.02;;
4547;SDS011;2286;51.570;7.090;2022-12-18T04:50:57;53.10;;;28.58;;
4547;SDS011;2286;51.570;7.090;2022-12-18T04:53:26;46.10;;;29.05;;
4547;SDS011;2286;51.570;7.090;2022-12-18T04:56:01;46.65;;;31.25;;
4547;SDS011;2286;51.570;7.090;2022-12-18T04:58:30;51.20;;;29.92;;
4547;SDS011;2286;51.570;7.090;2022-12-18T05:00:57;54.47;;;31.13;;
4547;SDS011;2286;51.570;7.090;2022-12-18T05:03:24;45.70;;;30.45;;
4547;SDS011;2286;51.570;7.090;2022-12-18T05:05:51;47.53;;;31.15;;
4547;SDS011;2286;51.570;7.090;2022-12-18T05:08:18;55.75;;;34.08;;
4547;SDS011;2286;51.570;7.090;2022-12-18T05:10:46;50.70;;;33.20;;
4547;SDS011;2286;51.570;7.090;2022-12-18T05:13:13;48.35;;;32.47;;
4547;SDS011;2286;51.570;7.090;2022-12-18T05:15:40;53.80;;;30.70;;
4547;SDS011;2286;51.570;7.090;2022-12-18T05:18:07;61.05;;;33.65;;
4547;SDS011;2286;51.570;7.090;2022-12-18T05:20:35;51.13;;;33.30;;
4547;SDS011;2286;51.570;7.090;2022-12-18T05:23:02;46.38;;;30.30;;
4547;SDS011;2286;51.570;7.090;2022-12-18T05:25:29;46.92;;;30.42;;
4547;SDS011;2286;51.570;7.090;2022-12-18T05:27:57;43.75;;;30.13;;
4547;SDS011;2286;51.570;7.090;2022-12-18T05:30:24;53.97;;;32.15;;
4547;SDS011;2286;51.570;7.090;2022-12-18T05:32:51;49.17;;;30.15;;
4547;SDS011;2286;51.570;7.090;2022-12-18T05:35:18;45.35;;;30.02;;
4547;SDS011;2286;51.570;7.090;2022-12-18T05:37:45;45.45;;;29.27;;
4547;SDS011;2286;51.570;7.090;2022-12-18T05:40:13;48.60;;;31.35;;
4547;SDS011;2286;51.570;7.090;2022-12-18T05:42:40;50.45;;;31.05;;
4547;SDS011;2286;51.570;7.090;2022-12-18T05:45:09;46.75;;;29.95;;
4547;SDS011;2286;51.570;7.090;2022-12-18T05:47:36;46.78;;;30.17;;
4547;SDS011;2286;51.570;7.090;2022-12-18T05:50:03;48.15;;;30.85;;
4547;SDS011;2286;51.570;7.090;2022-12-18T05:52:31;40.88;;;28.77;;
4547;SDS011;2286;51.570;7.090;2022-12-18T05:54:58;43.13;;;28.50;;
4547;SDS011;2286;51.570;7.090;2022-12-18T05:57:27;42.70;;;29.25;;
4547;SDS011;2286;51.570;7.090;2022-12-18T05:59:54;46.00;;;29.27;;
4547;SDS011;2286;51.570;7.090;2022-12-18T06:02:22;41.13;;;27.30;;
4547;SDS011;2286;51.570;7.090;2022-12-18T06:04:49;45.40;;;30.20;;
4547;SDS011;2286;51.570;7.090;2022-12-18T06:07:16;41.75;;;27.00;;
4547;SDS011;2286;51.570;7.090;2022-12-18T06:09:43;40.63;;;27.98;;
4547;SDS011;2286;51.570;7.090;2022-12-18T06:12:10;37.75;;;26.45;;
4547;SDS011;2286;51.570;7.090;2022-12-18T06:14:37;41.70;;;28.55;;
4547;SDS011;2286;51.570;7.090;2022-12-18T06:17:04;45.72;;;28.42;;
4547;SDS011;2286;51.570;7.090;2022-12-18T06:19:32;43.55;;;28.42;;
4547;SDS011;2286;51.570;7.090;2022-12-18T06:21:59;43.10;;;25.88;;
4547;SDS011;2286;51.570;7.090;2022-12-18T06:24:26;37.65;;;25.23;;
4547;SDS011;2286;51.570;7.090;2022-12-18T06:26:53;38.75;;;25.73;;
4547;SDS011;2286;51.570;7.090;2022-12-18T06:29:20;47.00;;;27.40;;
4547;SDS011;2286;51.570;7.090;2022-12-18T06:31:47;42.00;;;26.50;;
4547;SDS011;2286;51.570;7.090;2022-12-18T06:34:14;40.38;;;25.92;;
4547;SDS011;2286;51.570;7.090;2022-12-18T06:36:43;42.17;;;26.33;;
4547;SDS011;2286;51.570;7.090;2022-12-18T06:39:10;42.47;;;26.30;;
4547;SDS011;2286;51.570;7.090;2022-12-18T06:41:37;40.47;;;26.42;;
4547;SDS011;2286;51.570;7.090;2022-12-18T06:44:04;41.72;;;26.50;;
4547;SDS011;2286;51.570;7.090;2022-12-18T06:46:31;37.03;;;26.48;;
4547;SDS011;2286;51.570;7.090;2022-12-18T06:48:58;42.20;;;25.80;;
4547;SDS011;2286;51.570;7.090;2022-12-18T06:51:25;40.45;;;24.33;;
4547;SDS011;2286;51.570;7.090;2022-12-18T06:53:54;42.88;;;27.35;;
4547;SDS011;2286;51.570;7.090;2022-12-18T06:56:21;40.10;;;25.25;;
4547;SDS011;2286;51.570;7.090;2022-12-18T06:58:48;40.70;;;25.88;;
4547;SDS011;2286;51.570;7.090;2022-12-18T07:01:15;40.25;;;25.27;;
4547;SDS011;2286;51.570;7.090;2022-12-18T07:03:42;44.40;;;26.27;;
4547;SDS011;2286;51.570;7.090;2022-12-18T07:06:13;40.05;;;24.60;;
4547;SDS011;2286;51.570;7.090;2022-12-18T07:08:41;40.25;;;25.15;;
4547;SDS011;2286;51.570;7.090;2022-12-18T07:11:09;38.63;;;24.35;;
4547;SDS011;2286;51.570;7.090;2022-12-18T07:13:37;37.33;;;25.05;;
4547;SDS011;2286;51.570;7.090;2022-12-18T07:16:05;34.65;;;24.13;;
4547;SDS011;2286;51.570;7.090;2022-12-18T07:18:33;42.40;;;26.10;;
4547;SDS011;2286;51.570;7.090;2022-12-18T07:21:02;34.95;;;24.42;;
4547;SDS011;2286;51.570;7.090;2022-12-18T07:23:31;37.00;;;25.63;;
4547;SDS011;2286;51.570;7.090;2022-12-18T07:26:00;37.88;;;23.92;;
4547;SDS011;2286;51.570;7.090;2022-12-18T07:28:30;35.40;;;24.00;;
4547;SDS011;2286;51.570;7.090;2022-12-18T07:30:57;36.50;;;24.45;;
4547;SDS011;2286;51.570;7.090;2022-12-18T07:33:25;38.05;;;24.40;;
4547;SDS011;2286;51.570;7.090;2022-12-18T07:35:52;36.15;;;24.75;;
4547;SDS011;2286;51.570;7.090;2022-12-18T07:38:19;37.45;;;24.10;;
4547;SDS011;2286;51.570;7.090;2022-12-18T07:40:46;36.15;;;24.40;;
4547;SDS011;2286;51.570;7.090;2022-12-18T07:43:13;37.97;;;24.35;;
4547;SDS011;2286;51.570;7.090;2022-12-18T07:45:42;47.45;;;26.25;;
4547;SDS011;2286;51.570;7.090;2022-12-18T07:48:09;36.97;;;25.65;;
4547;SDS011;2286;51.570;7.090;2022-12-18T07:50:37;40.45;;;26.52;;
4547;SDS011;2286;51.570;7.090;2022-12-18T07:53:04;48.22;;;26.50;;
4547;SDS011;2286;51.570;7.090;2022-12-18T07:55:31;40.10;;;27.00;;
4547;SDS011;2286;51.570;7.090;2022-12-18T07:58:00;37.60;;;26.15;;
4547;SDS011;2286;51.570;7.090;2022-12-18T08:00:28;29.85;;;21.95;;
4547;SDS011;2286;51.570;7.090;2022-12-18T08:02:56;32.90;;;22.95;;
4547;SDS011;2286;51.570;7.090;2022-12-18T08:05:23;34.42;;;21.67;;
4547;SDS011;2286;51.570;7.090;2022-12-18T08:07:51;34.53;;;23.50;;
4547;SDS011;2286;51.570;7.090;2022-12-18T08:10:18;35.03;;;23.15;;
4547;SDS011;2286;51.570;7.090;2022-12-18T08:12:45;31.92;;;22.40;;
4547;SDS011;2286;51.570;7.090;2022-12-18T08:15:14;28.52;;;19.75;;
4547;SDS011;2286;51.570;7.090;2022-12-18T08:17:41;34.45;;;23.65;;
4547;SDS011;2286;51.570;7.090;2022-12-18T08:20:10;33.05;;;22.15;;
4547;SDS011;2286;51.570;7.090;2022-12-18T08:22:39;30.80;;;23.05;;
4547;SDS011;2286;51.570;7.090;2022-12-18T08:25:06;32.60;;;23.52;;
4547;SDS011;2286;51.570;7.090;2022-12-18T08:27:33;31.25;;;21.85;;
4547;SDS011;2286;51.570;7.090;2022-12-18T08:30:01;35.05;;;22.63;;
4547;SDS011;2286;51.570;7.090;2022-12-18T08:32:29;29.75;;;20.98;;
4547;SDS011;2286;51.570;7.090;2022-12-18T08:34:58;36.25;;;22.90;;
4547;SDS011;2286;51.570;7.090;2022-12-18T08:37:26;29.00;;;22.42;;
4547;SDS011;2286;51.570;7.090;2022-12-18T08:39:53;30.85;;;22.13;;
4547;SDS011;2286;51.570;7.090;2022-12-18T08:42:20;30.50;;;23.10;;
4547;SDS011;2286;51.570;7.090;2022-12-18T08:45:04;33.95;;;22.70;;
4547;SDS011;2286;51.570;7.090;2022-12-18T08:47:32;29.67;;;20.98;;
4547;SDS011;2286;51.570;7.090;2022-12-18T08:49:59;29.83;;;23.80;;
4547;SDS011;2286;51.570;7.090;2022-12-18T08:52:27;28.20;;;20.10;;
4547;SDS011;2286;51.570;7.090;2022-12-18T08:54:54;31.80;;;22.52;;
4547;SDS011;2286;51.570;7.090;2022-12-18T08:57:21;32.10;;;22.90;;
4547;SDS011;2286;51.570;7.090;2022-12-18T08:59:48;32.13;;;23.05;;
4547;SDS011;2286;51.570;7.090;2022-12-18T09:02:15;32.90;;;23.73;;
4547;SDS011;2286;51.570;7.090;2022-12-18T09:04:42;33.55;;;23.48;;
4547;SDS011;2286;51.570;7.090;2022-12-18T09:07:09;33.28;;;23.50;;
4547;SDS011;2286;51.570;7.090;2022-12-18T09:09:38;26.73;;;21.35;;
4547;SDS011;2286;51.570;7.090;2022-12-18T09:12:05;30.60;;;23.20;;
4547;SDS011;2286;51.570;7.090;2022-12-18T09:14:32;30.90;;;21.75;;
4547;SDS011;2286;51.570;7.090;2022-12-18T09:16:59;27.55;;;21.10;;
4547;SDS011;2286;51.570;7.090;2022-12-18T09:19:26;26.95;;;20.55;;
4547;SDS011;2286;51.570;7.090;2022-12-18T09:21:53;26.65;;;19.15;;
4547;SDS011;2286;51.570;7.090;2022-12-18T09:24:20;24.35;;;19.48;;
4547;SDS011;2286;51.570;7.090;2022-12-18T09:26:48;26.38;;;22.00;;
4547;SDS011;2286;51.570;7.090;2022-12-18T09:29:20;25.48;;;19.40;;
4547;SDS011;2286;51.570;7.090;2022-12-18T09:31:47;25.38;;;20.13;;
4547;SDS011;2286;51.570;7.090;2022-12-18T09:34:14;24.40;;;19.95;;
4547;SDS011;2286;51.570;7.090;2022-12-18T09:36:42;24.45;;;20.05;;
4547;SDS011;2286;51.570;7.090;2022-12-18T09:39:09;25.42;;;19.50;;
4547;SDS011;2286;51.570;7.090;2022-12-18T09:41:40;24.73;;;19.92;;
4547;SDS011;2286;51.570;7.090;2022-12-18T09:44:14;22.02;;;18.13;;
4547;SDS011;2286;51.570;7.090;2022-12-18T09:46:47;21.98;;;18.50;;
4547;SDS011;2286;51.570;7.090;2022-12-18T09:49:17;22.40;;;18.70;;
4547;SDS011;2286;51.570;7.090;2022-12-18T09:51:49;24.17;;;18.45;;
4547;SDS011;2286;51.570;7.090;2022-12-18T09:54:22;24.58;;;19.92;;
4547;SDS011;2286;51.570;7.090;2022-12-18T09:56:52;23.95;;;19.55;;
4547;SDS011;2286;51.570;7.090;2022-12-18T09:59:22;22.35;;;19.00;;
4547;SDS011;2286;51.570;7.090;2022-12-18T10:01:52;22.83;;;18.60;;
4547;SDS011;2286;51.570;7.090;2022-12-18T10:04:19;24.20;;;18.73;;
4547;SDS011;2286;51.570;7.090;2022-12-18T10:06:48;23.75;;;18.95;;
4547;SDS011;2286;51.570;7.090;2022-12-18T10:09:24;22.92;;;18.77;;
4547;SDS011;2286;51.570;7.090;2022-12-18T10:11:59;20.27;;;18.05;;
4547;SDS011;2286;51.570;7.090;2022-12-18T10:14:36;24.63;;;18.35;;
4547;SDS011;2286;51.570;7.090;2022-12-18T10:17:12;21.40;;;18.23;;
4547;SDS011;2286;51.570;7.090;2022-12-18T10:19:49;20.95;;;18.55;;
4547;SDS011;2286;51.570;7.090;2022-12-18T10:22:26;19.92;;;17.67;;
4547;SDS011;2286;51.570;7.090;2022-12-18T10:25:05;22.05;;;18.45;;
4547;SDS011;2286;51.570;7.090;2022-12-18T10:27:43;17.67;;;15.07;;
4547;SDS011;2286;51.570;7.090;2022-12-18T10:30:13;20.70;;;16.60;;
4547;SDS011;2286;51.570;7.090;2022-12-18T10:32:41;21.90;;;16.83;;
4547;SDS011;2286;51.570;7.090;2022-12-18T10:35:11;19.10;;;15.65;;
4547;SDS011;2286;51.570;7.090;2022-12-18T10:40:27;21.00;;;17.30;;
4547;SDS011;2286;51.570;7.090;2022-12-18T10:43:03;20.20;;;16.45;;
4547;SDS011;2286;51.570;7.090;2022-12-18T10:45:33;18.52;;;14.05;;
4547;SDS011;2286;51.570;7.090;2022-12-18T10:48:00;16.65;;;14.85;;
4547;SDS011;2286;51.570;7.090;2022-12-18T10:50:28;16.33;;;14.63;;
4547;SDS011;2286;51.570;7.090;2022-12-18T10:52:58;20.92;;;15.43;;
4547;SDS011;2286;51.570;7.090;2022-12-18T10:55:27;16.40;;;14.70;;
4547;SDS011;2286;51.570;7.090;2022-12-18T10:58:12;19.15;;;16.45;;
4547;SDS011;2286;51.570;7.090;2022-12-18T11:00:44;17.73;;;15.00;;
4547;SDS011;2286;51.570;7.090;2022-12-18T11:03:33;16.08;;;14.35;;
4547;SDS011;2286;51.570;7.090;2022-12-18T11:06:02;15.55;;;13.90;;
4547;SDS011;2286;51.570;7.090;2022-12-18T11:08:31;15.55;;;13.90;;
4547;SDS011;2286;51.570;7.090;2022-12-18T11:10:58;18.70;;;15.35;;
4547;SDS011;2286;51.570;7.090;2022-12-18T11:13:26;16.75;;;14.75;;
4547;SDS011;2286;51.570;7.090;2022-12-18T11:15:56;19.58;;;15.82;;
4547;SDS011;2286;51.570;7.090;2022-12-18T11:18:25;17.27;;;15.50;;
4547;SDS011;2286;51.570;7.090;2022-12-18T11:20:55;17.05;;;14.80;;
4547;SDS011;2286;51.570;7.090;2022-12-18T11:23:23;16.63;;;14.90;;
4547;SDS011;2286;51.570;7.090;2022-12-18T11:25:55;15.63;;;14.02;;
4547;SDS011;2286;51.570;7.090;2022-12-18T11:28:28;15.15;;;13.70;;
4547;SDS011;2286;51.570;7.090;2022-12-18T11:31:11;17.20;;;15.48;;
4547;SDS011;2286;51.570;7.090;2022-12-18T11:33:44;16.40;;;14.70;;
4547;SDS011;2286;51.570;7.090;2022-12-18T11:36:15;17.08;;;15.30;;
4547;SDS011;2286;51.570;7.090;2022-12-18T11:38:43;16.70;;;14.27;;
4547;SDS011;2286;51.570;7.090;2022-12-18T11:41:13;15.40;;;13.80;;
4547;SDS011;2286;51.570;7.090;2022-12-18T11:43:47;16.02;;;13.65;;
4547;SDS011;2286;51.570;7.090;2022-12-18T11:46:23;15.40;;;13.80;;
4547;SDS011;2286;51.570;7.090;2022-12-18T11:48:55;15.02;;;13.38;;
4547;SDS011;2286;51.570;7.090;2022-12-18T11:51:26;15.93;;;14.25;;
4547;SDS011;2286;51.570;7.090;2022-12-18T11:53:58;16.15;;;14.48;;
4547;SDS011;2286;51.570;7.090;2022-12-18T11:56:29;17.85;;;15.00;;
4547;SDS011;2286;51.570;7.090;2022-12-18T11:59:00;17.15;;;15.35;;
4547;SDS011;2286;51.570;7.090;2022-12-18T12:01:38;16.92;;;14.90;;
4547;SDS011;2286;51.570;7.090;2022-12-18T12:04:15;17.55;;;15.65;;
4547;SDS011;2286;51.570;7.090;2022-12-18T12:07:18;17.95;;;16.05;;
4547;SDS011;2286;51.570;7.090;2022-12-18T12:09:53;20.63;;;16.40;;
4547;SDS011;2286;51.570;7.090;2022-12-18T12:12:33;17.17;;;14.77;;
4547;SDS011;2286;51.570;7.090;2022-12-18T12:15:13;16.08;;;14.35;;
4547;SDS011;2286;51.570;7.090;2022-12-18T12:17:51;17.23;;;15.13;;
4547;SDS011;2286;51.570;7.090;2022-12-18T12:20:26;16.83;;;15.02;;
4547;SDS011;2286;51.570;7.090;2022-12-18T12:23:03;16.20;;;14.48;;
4547;SDS011;2286;51.570;7.090;2022-12-18T12:25:37;16.23;;;14.48;;
4547;SDS011;2286;51.570;7.090;2022-12-18T12:28:13;16.10;;;14.40;;
4547;SDS011;2286;51.570;7.090;2022-12-18T12:30:52;15.52;;;13.93;;
4547;SDS011;2286;51.570;7.090;2022-12-18T12:33:31;15.10;;;13.50;;
4547;SDS011;2286;51.570;7.090;2022-12-18T12:36:08;14.95;;;13.35;;
4547;SDS011;2286;51.570;7.090;2022-12-18T12:38:43;15.88;;;14.20;;
4547;SDS011;2286;51.570;7.090;2022-12-18T12:41:16;15.07;;;13.57;;
4547;SDS011;2286;51.570;7.090;2022-12-18T12:44:04;15.27;;;12.95;;
4547;SDS011;2286;51.570;7.090;2022-12-18T12:46:36;14.57;;;13.18;;
4547;SDS011;2286;51.570;7.090;2022-12-18T12:49:09;14.43;;;12.93;;
4547;SDS011;2286;51.570;7.090;2022-12-18T12:51:40;15.27;;;13.68;;
4547;SDS011;2286;51.570;7.090;2022-12-18T12:54:11;16.00;;;14.35;;
4547;SDS011;2286;51.570;7.090;2022-12-18T12:56:45;15.43;;;13.80;;
4547;SDS011;2286;51.570;7.090;2022-12-18T12:59:19;15.75;;;14.15;;
4547;SDS011;2286;51.570;7.090;2022-12-18T13:01:54;16.95;;;15.00;;
4547;SDS011;2286;51.570;7.090;2022-12-18T13:04:30;25.90;;;21.33;;
4547;SDS011;2286;51.570;7.090;2022-12-18T13:07:04;19.52;;;16.65;;
4547;SDS011;2286;51.570;7.090;2022-12-18T13:10:12;29.85;;;27.02;;
4547;SDS011;2286;51.570;7.090;2022-12-18T13:12:52;19.23;;;16.98;;
4547;SDS011;2286;51.570;7.090;2022-12-18T13:15:23;20.83;;;16.83;;
4547;SDS011;2286;51.570;7.090;2022-12-18T13:20:41;19.00;;;14.93;;
4547;SDS011;2286;51.570;7.090;2022-12-18T13:23:19;19.30;;;15.65;;
4547;SDS011;2286;51.570;7.090;2022-12-18T13:25:54;17.17;;;15.38;;
4547;SDS011;2286;51.570;7.090;2022-12-18T13:28:23;17.02;;;15.25;;
4547;SDS011;2286;51.570;7.090;2022-12-18T13:34:25;21.30;;;16.75;;
4547;SDS011;2286;51.570;7.090;2022-12-18T13:36:54;21.38;;;16.90;;
4547;SDS011;2286;51.570;7.090;2022-12-18T13:39:26;21.48;;;16.83;;
4547;SDS011;2286;51.570;7.090;2022-12-18T13:45:40;18.90;;;15.88;;
4547;SDS011;2286;51.570;7.090;2022-12-18T13:48:17;19.15;;;15.85;;
4547;SDS011;2286;51.570;7.090;2022-12-18T13:50:48;23.77;;;17.88;;
4547;SDS011;2286;51.570;7.090;2022-12-18T13:53:19;23.05;;;17.67;;
4547;SDS011;2286;51.570;7.090;2022-12-18T13:55:49;20.98;;;18.15;;
4547;SDS011;2286;51.570;7.090;2022-12-18T13:58:16;21.42;;;18.13;;
4547;SDS011;2286;51.570;7.090;2022-12-18T14:00:45;19.92;;;16.73;;
4547;SDS011;2286;51.570;7.090;2022-12-18T14:03:19;19.27;;;17.13;;
4547;SDS011;2286;51.570;7.090;2022-12-18T14:05:52;19.98;;;17.20;;
4547;SDS011;2286;51.570;7.090;2022-12-18T14:08:21;19.15;;;16.40;;
4547;SDS011;2286;51.570;7.090;2022-12-18T14:10:56;23.45;;;17.00;;
4547;SDS011;2286;51.570;7.090;2022-12-18T14:13:24;20.80;;;15.57;;
4547;SDS011;2286;51.570;7.090;2022-12-18T14:15:56;16.20;;;14.55;;
4547;SDS011;2286;51.570;7.090;2022-12-18T14:18:33;16.95;;;13.77;;
4547;SDS011;2286;51.570;7.090;2022-12-18T14:21:13;16.52;;;12.50;;
4547;SDS011;2286;51.570;7.090;2022-12-18T14:23:47;15.27;;;12.20;;
4547;SDS011;2286;51.570;7.090;2022-12-18T14:26:20;14.10;;;11.25;;
4547;SDS011;2286;51.570;7.090;2022-12-18T14:28:52;19.08;;;13.77;;
4547;SDS011;2286;51.570;7.090;2022-12-18T14:31:22;19.40;;;12.48;;
4547;SDS011;2286;51.570;7.090;2022-12-18T14:33:50;16.30;;;12.13;;
4547;SDS011;2286;51.570;7.090;2022-12-18T14:36:18;16.77;;;12.55;;
4547;SDS011;2286;51.570;7.090;2022-12-18T14:38:48;17.65;;;11.63;;
4547;SDS011;2286;51.570;7.090;2022-12-18T14:41:17;15.75;;;11.55;;
4547;SDS011;2286;51.570;7.090;2022-12-18T14:43:46;15.88;;;11.15;;
4547;SDS011;2286;51.570;7.090;2022-12-18T14:46:32;17.58;;;11.82;;
4547;SDS011;2286;51.570;7.090;2022-12-18T14:49:02;14.95;;;11.48;;
4547;SDS011;2286;51.570;7.090;2022-12-18T14:51:31;14.20;;;10.85;;
4547;SDS011;2286;51.570;7.090;2022-12-18T14:54:01;18.45;;;12.10;;
4547;SDS011;2286;51.570;7.090;2022-12-18T14:56:33;23.33;;;12.35;;
4547;SDS011;2286;51.570;7.090;2022-12-18T14:59:02;18.73;;;12.80;;
4547;SDS011;2286;51.570;7.090;2022-12-18T15:01:33;27.38;;;13.48;;
4547;SDS011;2286;51.570;7.090;2022-12-18T15:04:03;18.95;;;13.30;;
4547;SDS011;2286;51.570;7.090;2022-12-18T15:06:32;23.05;;;13.88;;
4547;SDS011;2286;51.570;7.090;2022-12-18T15:09:02;16.20;;;12.45;;
4547;SDS011;2286;51.570;7.090;2022-12-18T15:11:35;17.02;;;12.05;;
4547;SDS011;2286;51.570;7.090;2022-12-18T15:17:14;18.65;;;13.20;;
4547;SDS011;2286;51.570;7.090;2022-12-18T15:19:43;13.20;;;11.73;;
4547;SDS011;2286;51.570;7.090;2022-12-18T15:22:17;16.45;;;11.98;;
4547;SDS011;2286;51.570;7.090;2022-12-18T15:24:47;16.25;;;12.02;;